Time;durP1;ratioP1;P1;durP2;ratioP2;P2;SDS_P1;SDS_P2;PMS_P1;PMS_P2;Temp;Humidity;BMP_temperature;BMP_pressure;BME280_temperature;BME280_humidity;BME280_pressure;Samples;Min_cycle;Max_cycle;Signal;HPM_P1;HPM_P2
2021/11/05 00:00:08;;;;;;;10.57;9.47;;;6.50;85.50;;;5.21;89.61;97755.00;5047846;28;20493;-71
2021/11/05 00:02:35;;;;;;;9.83;8.83;;;6.50;85.20;;;5.05;89.88;97748.84;5049560;28;20958;-72
2021/11/05 00:05:02;;;;;;;11.30;9.70;;;6.50;86.00;;;5.11;89.54;97757.97;5046499;28;20541;-72
2021/11/05 00:07:29;;;;;;;11.87;10.07;;;6.50;85.30;;;5.07;89.86;97762.88;5049701;28;20484;-71
2021/11/05 00:09:56;;;;;;;11.07;9.47;;;6.50;85.70;;;5.24;89.01;97762.69;5047714;28;20489;-71
2021/11/05 00:12:24;;;;;;;11.03;9.50;;;6.60;85.40;;;5.33;88.66;97760.72;5061735;28;20457;-72
2021/11/05 00:14:52;;;;;;;10.17;8.70;;;6.60;85.10;;;5.13;89.85;97779.22;5049038;28;20470;-71
2021/11/05 00:17:19;;;;;;;10.87;9.53;;;6.60;84.90;;;5.26;88.90;97774.03;5049554;28;20504;-71
2021/11/05 00:19:46;;;;;;;12.17;9.20;;;6.60;84.70;;;5.27;88.77;97775.69;5047530;28;20464;-71
2021/11/05 00:22:12;;;;;;;12.00;10.00;;;6.60;84.80;;;5.28;89.95;97776.53;5048229;28;20482;-72
2021/11/05 00:24:40;;;;;;;9.50;8.53;;;6.60;85.60;;;5.25;89.65;97783.09;5044784;28;20569;-71
2021/11/05 00:27:07;;;;;;;10.10;9.10;;;6.60;85.20;;;5.39;88.30;97776.03;5049556;28;20720;-73
2021/11/05 00:29:35;;;;;;;9.80;8.70;;;6.70;84.50;;;5.47;87.66;97780.47;5048859;28;20656;-72
2021/11/05 00:32:02;;;;;;;10.20;9.10;;;6.80;84.10;;;5.52;87.28;97780.72;5046614;28;20709;-71
2021/11/05 00:34:29;;;;;;;12.13;10.33;;;6.80;83.80;;;5.37;88.00;97778.91;5047784;28;20826;-72
2021/11/05 00:36:56;;;;;;;10.30;9.10;;;6.80;83.80;;;5.35;89.32;97786.28;5051869;28;20489;-71
2021/11/05 00:39:23;;;;;;;10.90;9.27;;;6.70;84.60;;;5.43;88.08;97776.50;5049987;28;20530;-71
2021/11/05 00:41:50;;;;;;;10.03;9.03;;;6.80;83.80;;;5.31;89.67;97786.88;5051532;28;20454;-71
2021/11/05 00:44:17;;;;;;;10.63;9.53;;;6.70;84.80;;;5.40;88.22;97788.41;5065627;28;20565;-71
2021/11/05 00:46:45;;;;;;;10.50;9.40;;;6.70;83.70;;;5.39;88.36;97792.13;5051411;28;20496;-71
2021/11/05 00:49:12;;;;;;;9.40;8.47;;;6.80;83.90;;;5.29;88.36;97780.84;5049768;28;20498;-71
2021/11/05 00:51:39;;;;;;;11.60;9.63;;;6.70;84.10;;;5.51;87.38;97790.63;5048628;28;20486;-72
2021/11/05 00:54:08;;;;;;;8.97;8.10;;;6.80;83.60;;;5.36;87.80;97793.31;5046571;28;20493;-71
2021/11/05 00:56:35;;;;;;;9.40;8.40;;;6.80;83.50;;;5.38;88.04;97799.34;5049377;28;20545;-71
2021/11/05 00:59:02;;;;;;;10.83;9.13;;;6.80;83.90;;;5.20;89.25;97798.88;5047099;28;20548;-70
2021/11/05 01:01:29;;;;;;;10.30;9.20;;;6.60;83.70;;;5.26;88.47;97806.19;5043602;28;20541;-71
2021/11/05 01:03:57;;;;;;;9.57;8.13;;;6.60;84.40;;;5.09;88.99;97806.38;5044740;28;20499;-75
2021/11/05 01:06:24;;;;;;;10.93;9.63;;;6.60;84.60;;;5.28;89.62;97801.47;5047452;28;20503;-71
2021/11/05 01:08:51;;;;;;;10.90;9.73;;;6.60;85.20;;;5.25;89.49;97801.84;5046652;28;20544;-72
2021/11/05 01:11:18;;;;;;;10.27;9.17;;;6.60;85.30;;;5.39;88.21;97809.03;5048672;28;20458;-72
2021/11/05 01:13:46;;;;;;;11.07;9.97;;;6.70;84.50;;;5.48;87.21;97803.56;5047041;28;20572;-70
2021/11/05 01:16:13;;;;;;;9.27;8.27;;;6.80;83.80;;;5.42;87.23;97801.63;5049096;28;20456;-72
2021/11/05 01:18:40;;;;;;;9.33;8.30;;;6.80;83.40;;;5.31;87.01;97770.81;5062815;28;20543;-71
2021/11/05 01:21:08;;;;;;;9.90;8.90;;;6.90;83.50;;;5.36;88.62;97813.94;5047547;28;20489;-70
2021/11/05 01:23:35;;;;;;;11.30;10.10;;;6.80;83.90;;;5.22;89.27;97812.91;5042976;28;20465;-71
2021/11/05 01:26:03;;;;;;;11.40;9.30;;;6.70;84.60;;;5.20;88.94;97820.31;5047635;28;20485;-71
2021/11/05 01:28:30;;;;;;;11.57;9.90;;;6.60;84.60;;;5.20;89.49;97813.13;5048492;28;20559;-71
2021/11/05 01:30:57;;;;;;;10.63;9.33;;;6.60;84.60;;;5.10;88.69;97807.19;5046497;28;20927;-71
2021/11/05 01:33:24;;;;;;;10.60;9.50;;;6.60;84.60;;;5.31;88.44;97814.50;5048459;28;20489;-71
2021/11/05 01:35:52;;;;;;;10.33;9.33;;;6.60;84.90;;;5.09;89.58;97819.78;5043875;28;20463;-71
2021/11/05 01:38:20;;;;;;;11.90;10.30;;;6.50;84.80;;;5.12;90.28;97823.09;5047348;28;20545;-72
2021/11/05 01:40:48;;;;;;;10.93;9.70;;;6.50;85.80;;;5.05;89.35;97815.78;5060614;28;20462;-72
2021/11/05 01:43:16;;;;;;;10.83;9.73;;;6.50;85.00;;;5.05;90.08;97823.00;5048531;28;20489;-69
2021/11/05 01:45:45;;;;;;;11.47;10.30;;;6.50;86.10;;;5.08;89.77;97827.97;5047887;28;20546;-71
2021/11/05 01:48:12;;;;;;;12.83;10.17;;;6.50;85.20;;;5.23;90.01;97830.66;5038356;28;20480;-70
2021/11/05 01:50:40;;;;;;;11.73;10.07;;;6.50;85.70;;;5.14;89.59;97829.91;5049089;28;20458;-71
2021/11/05 01:53:08;;;;;;;10.40;9.33;;;6.60;85.30;;;5.23;89.34;97836.84;5048480;28;21017;-71
2021/11/05 01:55:36;;;;;;;13.60;9.90;;;6.60;85.30;;;5.25;89.32;97839.34;5045981;28;20937;-71
2021/11/05 01:58:03;;;;;;;10.10;8.47;;;6.60;84.80;;;5.23;88.93;97836.00;5046795;28;20465;-71
2021/11/05 02:00:33;;;;;;;11.97;10.10;;;6.60;84.50;;;5.40;88.20;97825.94;5049640;28;20854;-71
2021/11/05 02:03:00;;;;;;;10.07;8.87;;;6.70;84.20;;;5.20;89.03;97828.34;5050532;28;20820;-70
2021/11/05 02:05:27;;;;;;;10.03;9.03;;;6.70;84.00;;;5.29;88.66;97827.25;5056300;28;20828;-72
2021/11/05 02:07:57;;;;;;;10.50;9.50;;;6.70;84.80;;;5.27;88.67;97842.69;5059288;28;20478;-72
2021/11/05 02:10:28;;;;;;;9.23;8.37;;;6.70;84.40;;;5.32;87.94;97834.91;5051691;28;20450;-71
2021/11/05 02:12:57;;;;;;;10.20;8.83;;;6.70;84.20;;;5.37;87.85;97837.03;5049423;28;20973;-72
2021/11/05 02:15:25;;;;;;;9.87;8.87;;;6.70;83.90;;;5.05;89.52;97831.03;5057212;28;20566;-72
2021/11/05 02:17:52;;;;;;;11.17;9.57;;;6.60;84.50;;;5.05;89.92;97834.53;5044066;28;20913;-72
2021/11/05 02:20:24;;;;;;;10.70;9.60;;;6.50;85.00;;;5.31;88.97;97835.91;5051068;28;21031;-71
2021/11/05 02:22:54;;;;;;;10.20;9.20;;;6.60;84.80;;;5.24;88.17;97835.00;5049510;28;20470;-71
2021/11/05 02:25:21;;;;;;;10.13;9.10;;;6.60;84.40;;;5.19;89.58;97835.56;5050795;28;20540;-72
2021/11/05 02:27:50;;;;;;;17.13;9.60;;;6.60;85.20;;;5.32;88.38;97840.25;5049235;28;21578;-71
2021/11/05 02:30:18;;;;;;;10.30;9.30;;;6.60;84.90;;;5.29;88.89;97850.50;5049141;28;20446;-71
2021/11/05 02:32:46;;;;;;;10.67;9.60;;;6.60;85.20;;;5.12;89.27;97850.69;5051718;28;20870;-71
2021/11/05 02:35:16;;;;;;;11.53;10.03;;;6.50;85.50;;;5.05;89.70;97842.56;5050872;28;20558;-71
2021/11/05 02:37:44;;;;;;;11.30;10.13;;;6.50;85.60;;;5.03;90.65;97852.63;5052679;28;20567;-72
2021/11/05 02:40:14;;;;;;;11.60;10.13;;;6.40;86.80;;;4.92;91.19;97861.13;5049266;28;20489;-72
2021/11/05 02:42:42;;;;;;;11.50;10.30;;;6.40;86.40;;;4.77;90.90;97853.88;5044293;28;20461;-72
2021/11/05 02:45:10;;;;;;;11.30;9.80;;;6.30;86.80;;;4.94;91.51;97853.75;5047391;28;20752;-72
2021/11/05 02:47:37;;;;;;;12.60;11.30;;;6.30;87.80;;;4.88;91.02;97866.03;5046923;28;20568;-72
2021/11/05 02:50:09;;;;;;;11.07;9.20;;;6.30;87.80;;;5.06;90.59;97862.16;5048497;28;20614;-71
2021/11/05 02:52:37;;;;;;;11.03;9.93;;;6.40;88.30;;;5.04;90.60;97859.66;5053340;28;20976;-71
2021/11/05 02:55:06;;;;;;;11.37;10.17;;;6.40;87.10;;;5.10;90.63;97858.94;5058114;28;20720;-71
2021/11/05 02:57:34;;;;;;;10.93;9.20;;;6.50;87.00;;;5.09;90.56;97867.13;5049945;28;20880;-72
2021/11/05 03:00:01;;;;;;;11.73;10.53;;;6.40;86.70;;;5.00;90.44;97868.22;5056021;28;20459;-71
2021/11/05 03:02:28;;;;;;;13.27;10.53;;;6.40;87.10;;;5.12;90.51;97865.94;5047676;28;20549;-71
2021/11/05 03:04:55;;;;;;;12.03;10.37;;;6.40;87.80;;;4.99;90.65;97862.06;5067849;28;20489;-71
2021/11/05 03:07:22;;;;;;;10.50;9.40;;;6.50;87.50;;;5.24;89.62;97881.38;5041761;28;20466;-70
2021/11/05 03:09:50;;;;;;;11.63;9.63;;;6.50;86.90;;;5.00;91.31;97887.81;5050759;28;20548;-71
2021/11/05 03:12:17;;;;;;;10.77;9.63;;;6.50;87.40;;;5.15;89.76;97892.38;5047442;28;20493;-71
2021/11/05 03:14:46;;;;;;;12.30;9.97;;;6.50;86.90;;;4.53;91.49;97810.31;5056470;28;20544;-71
2021/11/05 03:17:14;;;;;;;13.73;8.80;;;6.40;87.70;;;5.01;91.65;97886.81;5049375;28;20556;-71
2021/11/05 03:19:42;;;;;;;11.30;10.00;;;6.40;87.80;;;5.03;91.66;97889.31;5049846;28;20547;-70
2021/11/05 03:22:09;;;;;;;11.07;9.93;;;6.40;88.30;;;5.12;91.15;97900.78;5046048;28;20906;-71
2021/11/05 03:24:36;;;;;;;10.40;9.30;;;6.50;87.80;;;5.18;90.67;97908.91;5050541;28;20542;-70
2021/11/05 03:27:04;;;;;;;10.80;9.70;;;6.50;87.10;;;4.97;91.76;97907.75;5050468;28;20492;-70
2021/11/05 03:29:31;;;;;;;10.97;9.83;;;6.40;87.90;;;4.90;91.61;97911.34;5048156;28;20474;-70
2021/11/05 03:31:59;;;;;;;12.00;10.03;;;6.30;88.30;;;4.93;91.44;97911.81;5049881;28;21007;-72
2021/11/05 03:34:26;;;;;;;13.10;11.13;;;6.30;89.00;;;4.87;92.14;97925.09;5060017;28;20458;-71
2021/11/05 03:36:53;;;;;;;10.90;9.80;;;6.30;89.40;;;4.90;92.94;97922.03;5049942;28;20493;-72
2021/11/05 03:39:20;;;;;;;12.80;10.20;;;6.30;90.00;;;4.84;91.10;97907.53;5051916;28;20521;-71
2021/11/05 03:41:47;;;;;;;11.97;10.77;;;6.40;88.60;;;4.88;91.33;97929.44;5042800;28;20458;-71
2021/11/05 03:44:14;;;;;;;12.90;10.77;;;6.40;88.20;;;4.91;92.13;97931.75;5046298;28;20482;-71
2021/11/05 03:46:41;;;;;;;10.50;9.43;;;6.30;89.80;;;5.04;91.08;97940.00;5065466;28;20548;-71
2021/11/05 03:49:10;;;;;;;11.00;9.90;;;6.40;88.20;;;5.04;91.16;97942.66;5058118;28;20889;-71
2021/11/05 03:51:38;;;;;;;10.83;9.73;;;6.40;89.00;;;5.04;91.00;97945.34;5056307;28;20480;-72
2021/11/05 03:54:06;;;;;;;11.33;10.23;;;6.40;88.20;;;5.17;90.80;97955.47;5065070;28;20497;-72
2021/11/05 03:56:33;;;;;;;12.30;10.87;;;6.50;88.60;;;5.05;91.69;97951.56;5050058;28;20442;-71
2021/11/05 03:59:01;;;;;;;12.20;10.40;;;6.40;88.60;;;4.99;91.10;97944.22;5050172;28;20527;-71
2021/11/05 04:01:28;;;;;;;11.53;10.10;;;6.50;88.60;;;4.99;91.41;97955.78;5046366;28;20503;-71
2021/11/05 04:03:55;;;;;;;10.13;9.13;;;6.50;88.10;;;5.06;91.48;97959.38;5049081;28;20580;-72
2021/11/05 04:06:24;;;;;;;10.40;9.00;;;6.40;88.30;;;5.17;90.96;97962.66;5048601;28;20542;-71
2021/11/05 04:08:51;;;;;;;11.97;10.47;;;6.50;87.60;;;4.99;92.08;97954.94;5048808;28;20557;-71
2021/11/05 04:11:19;;;;;;;11.27;10.17;;;6.50;88.80;;;5.03;91.38;97964.28;5048675;28;20442;-71
2021/11/05 04:13:46;;;;;;;10.90;9.80;;;6.50;88.40;;;5.07;91.40;97963.72;5049376;28;20489;-71
2021/11/05 04:16:14;;;;;;;12.20;11.00;;;6.40;89.10;;;5.12;91.19;97970.41;5066005;28;20486;-73
2021/11/05 04:18:41;;;;;;;10.50;9.40;;;6.50;88.40;;;4.96;91.35;97964.19;5053506;28;20496;-71
2021/11/05 04:21:08;;;;;;;10.43;9.43;;;6.40;88.00;;;5.05;91.04;97979.16;5054459;28;21359;-72
2021/11/05 04:23:37;;;;;;;10.80;9.70;;;6.40;87.80;;;5.08;91.27;97976.13;5070612;28;20534;-73
2021/11/05 04:26:05;;;;;;;11.07;9.77;;;6.50;87.90;;;5.22;90.35;97977.16;5053719;28;20450;-71
2021/11/05 04:28:33;;;;;;;10.50;9.40;;;6.50;88.10;;;5.31;89.86;97977.91;5051261;28;20508;-71
2021/11/05 04:31:00;;;;;;;10.03;9.03;;;6.60;87.30;;;5.34;89.71;97982.09;5067304;28;20442;-72
2021/11/05 04:33:27;;;;;;;10.57;9.17;;;6.60;87.00;;;5.32;89.43;97984.94;5046171;28;20549;-71
2021/11/05 04:35:54;;;;;;;10.73;8.40;;;6.70;86.10;;;5.44;89.15;97987.19;5062296;28;20501;-72
2021/11/05 04:38:21;;;;;;;10.10;9.10;;;6.70;86.10;;;5.28;89.62;97994.34;5049524;28;20541;-71
2021/11/05 04:40:49;;;;;;;12.17;10.80;;;6.70;86.00;;;5.14;90.17;97981.75;5048623;28;20700;-72
2021/11/05 04:43:16;;;;;;;9.60;8.60;;;6.60;86.70;;;5.08;90.51;97978.81;5048306;28;20561;-71
2021/11/05 04:45:44;;;;;;;11.10;9.97;;;6.50;86.80;;;5.04;91.62;97987.38;5048434;28;20531;-70
2021/11/05 04:48:11;;;;;;;11.10;10.00;;;6.50;87.80;;;5.12;91.58;97989.16;5046620;28;20557;-71
2021/11/05 04:50:39;;;;;;;10.93;9.83;;;6.50;88.90;;;5.04;92.10;97990.88;5044376;28;20459;-72
2021/11/05 04:53:07;;;;;;;12.00;9.53;;;6.40;88.80;;;5.15;90.60;97991.47;5044166;28;20907;-71
2021/11/05 04:55:34;;;;;;;10.47;9.40;;;6.50;88.20;;;5.17;90.97;97992.09;5048871;28;20457;-71
2021/11/05 04:58:03;;;;;;;10.70;9.60;;;6.50;88.40;;;5.06;90.55;97991.53;5045901;28;21168;-72
2021/11/05 05:00:31;;;;;;;10.30;9.30;;;6.50;87.50;;;5.17;90.33;97992.09;5049135;28;20469;-72
2021/11/05 05:02:58;;;;;;;9.80;8.80;;;6.50;87.30;;;5.17;90.41;97998.31;5046672;28;20520;-72
2021/11/05 05:05:25;;;;;;;9.10;8.20;;;6.50;86.80;;;5.19;90.42;97995.44;5047841;28;20504;-71
2021/11/05 05:07:52;;;;;;;8.83;7.93;;;6.60;86.60;;;4.98;90.46;97994.28;5048664;28;20511;-71
2021/11/05 05:10:19;;;;;;;8.97;8.17;;;6.50;87.10;;;5.03;90.62;98002.59;5049048;28;20513;-70
2021/11/05 05:12:46;;;;;;;8.73;7.80;;;6.40;87.00;;;5.21;89.12;97999.59;5047793;28;20513;-72
2021/11/05 05:15:17;;;;;;;8.30;7.40;;;6.50;86.30;;;5.25;89.69;98000.09;5048830;28;20492;-72
2021/11/05 05:17:45;;;;;;;8.20;7.40;;;6.60;85.70;;;5.18;89.39;98009.84;5048846;28;20454;-70
2021/11/05 05:20:15;;;;;;;8.50;7.70;;;6.60;86.00;;;5.24;89.59;98019.84;5058222;28;20914;-71
2021/11/05 05:22:43;;;;;;;7.30;6.60;;;6.60;85.60;;;5.35;88.62;98022.06;5049168;28;20442;-71
2021/11/05 05:25:14;;;;;;;7.57;6.87;;;6.60;85.30;;;5.23;89.69;98020.84;5062514;28;20493;-72
2021/11/05 05:27:42;;;;;;;7.73;7.00;;;6.60;85.70;;;5.21;90.17;98021.03;5048114;28;20575;-70
2021/11/05 05:30:12;;;;;;;7.60;6.90;;;6.50;86.20;;;5.32;88.45;98017.09;5047766;28;20473;-71
2021/11/05 05:32:41;;;;;;;7.60;6.83;;;6.60;85.30;;;5.30;88.49;98027.16;5042262;28;20932;-71
2021/11/05 05:35:09;;;;;;;8.13;6.60;;;6.60;85.20;;;5.39;88.45;98026.06;5051497;28;20493;-71
2021/11/05 05:37:36;;;;;;;6.70;6.10;;;6.70;84.40;;;5.28;88.37;98036.38;5065791;28;20994;-72
2021/11/05 05:40:04;;;;;;;6.67;5.97;;;6.60;84.40;;;5.19;89.24;98033.78;5051421;28;21019;-71
2021/11/05 05:42:31;;;;;;;8.67;6.30;;;6.60;84.70;;;5.21;89.88;98041.63;5050363;28;20496;-70
2021/11/05 05:44:58;;;;;;;6.87;6.07;;;6.60;85.40;;;5.20;88.81;98046.16;5052408;28;20636;-71
2021/11/05 05:47:25;;;;;;;9.77;7.10;;;6.60;84.70;;;5.28;90.20;98055.13;5050596;28;20457;-71
2021/11/05 05:49:53;;;;;;;7.53;6.73;;;6.60;86.00;;;5.17;89.83;98049.22;5065729;28;20564;-72
2021/11/05 05:52:21;;;;;;;7.53;6.33;;;6.60;86.00;;;5.25;89.22;98064.38;5062233;28;20483;-70
2021/11/05 05:54:48;;;;;;;7.93;6.90;;;6.60;85.40;;;5.38;89.09;98061.09;5048106;28;20486;-72
2021/11/05 05:57:15;;;;;;;7.87;6.80;;;6.70;85.10;;;5.32;89.58;98067.16;5063244;28;20469;-71
2021/11/05 05:59:42;;;;;;;6.17;5.57;;;6.60;85.50;;;5.32;89.14;98070.66;5050972;28;20481;-72
2021/11/05 06:02:09;;;;;;;8.17;6.37;;;6.60;84.80;;;5.36;89.04;98068.47;5047531;28;20552;-70
2021/11/05 06:04:37;;;;;;;11.70;7.30;;;6.70;84.80;;;5.43;88.84;98076.63;5050060;28;20537;-71
2021/11/05 06:07:06;;;;;;;9.20;7.50;;;6.70;85.00;;;5.39;90.03;98065.41;5050599;28;20508;-71
2021/11/05 06:09:33;;;;;;;8.60;7.20;;;6.70;88.80;;;5.65;90.46;98091.81;5052316;28;20474;-72
2021/11/05 06:12:01;;;;;;;7.27;6.67;;;6.90;89.60;;;5.61;88.11;98089.69;5051152;28;20496;-71
2021/11/05 06:14:28;;;;;;;6.07;5.47;;;6.90;84.90;;;5.67;88.96;98092.47;5050405;28;20456;-71
2021/11/05 06:16:55;;;;;;;9.23;7.20;;;6.90;86.40;;;5.63;88.34;98098.41;5050114;28;20744;-72
2021/11/05 06:19:22;;;;;;;7.63;6.87;;;7.00;84.10;;;5.39;88.94;98078.81;5049949;28;21124;-72
2021/11/05 06:21:49;;;;;;;8.10;7.30;;;6.90;84.90;;;5.61;86.95;98098.56;5059872;28;21063;-72
2021/11/05 06:24:18;;;;;;;7.73;6.90;;;7.00;83.20;;;5.62;87.50;98107.44;5051042;28;20465;-70
2021/11/05 06:26:45;;;;;;;8.20;7.40;;;6.90;83.70;;;5.54;87.15;98108.34;5046781;28;21040;-71
2021/11/05 06:29:12;;;;;;;7.70;6.90;;;6.90;83.10;;;5.58;87.14;98116.84;5050831;28;20489;-71
2021/11/05 06:31:39;;;;;;;7.60;6.90;;;6.90;82.90;;;5.51;87.99;98108.69;5049728;28;20612;-70
2021/11/05 06:34:06;;;;;;;9.67;8.30;;;6.90;84.00;;;5.74;89.30;98123.91;5051478;28;20457;-71
2021/11/05 06:36:34;;;;;;;8.13;7.40;;;6.90;86.30;;;5.49;88.16;98132.16;5064086;28;20825;-71
2021/11/05 06:39:01;;;;;;;8.43;7.63;;;7.00;83.60;;;5.49;89.21;98140.19;5065142;28;20529;-71
2021/11/05 06:41:30;;;;;;;9.33;8.30;;;6.80;84.80;;;5.59;87.91;98140.81;5050035;28;20511;-71
2021/11/05 06:43:57;;;;;;;9.33;8.20;;;6.90;84.10;;;5.63;88.23;98147.47;5048763;28;20856;-71
2021/11/05 06:46:24;;;;;;;9.53;8.53;;;7.00;84.30;;;5.58;87.96;98149.84;5065109;28;20493;-71
2021/11/05 06:48:51;;;;;;;8.73;7.93;;;6.90;84.50;;;5.79;87.51;98157.22;5050448;28;20551;-71
2021/11/05 06:51:18;;;;;;;8.43;7.57;;;7.10;84.60;;;5.87;87.18;98159.00;5051615;28;20494;-71
2021/11/05 06:53:45;;;;;;;10.07;9.00;;;7.20;84.80;;;5.92;87.00;98163.81;5050090;28;20520;-71
2021/11/05 06:56:13;;;;;;;9.17;7.90;;;7.10;83.30;;;6.01;86.46;98159.22;5062316;28;20462;-71
2021/11/05 06:58:45;;;;;;;8.90;8.00;;;7.30;83.70;;;5.92;86.91;98177.22;5049355;28;20567;-71
2021/11/05 07:01:12;;;;;;;8.60;7.80;;;7.30;83.00;;;5.99;87.05;98177.31;5049374;28;20549;-72
2021/11/05 07:03:39;;;;;;;9.53;8.17;;;7.30;83.30;;;5.83;87.55;98189.84;5048789;28;20498;-72
2021/11/05 07:06:06;;;;;;;10.87;8.80;;;7.10;83.30;;;5.77;87.58;98185.22;5046652;28;20497;-71
2021/11/05 07:08:33;;;;;;;9.17;8.23;;;7.10;83.70;;;5.90;86.44;98196.16;5049485;28;20493;-71
2021/11/05 07:11:01;;;;;;;9.47;8.10;;;7.20;83.10;;;6.08;86.81;98198.56;5065005;28;20501;-72
2021/11/05 07:13:28;;;;;;;9.70;7.83;;;7.30;83.40;;;5.98;86.25;98184.53;5048422;28;20492;-71
2021/11/05 07:15:56;;;;;;;12.90;8.37;;;7.30;82.90;;;5.87;87.55;98206.41;5050251;28;20532;-70
2021/11/05 07:18:24;;;;;;;9.80;8.90;;;7.30;83.30;;;5.84;87.80;98204.09;5047642;28;21126;-73
2021/11/05 07:20:51;;;;;;;10.03;8.77;;;7.20;83.60;;;6.02;87.06;98203.81;5048760;28;20557;-71
2021/11/05 07:23:20;;;;;;;9.60;8.60;;;7.20;83.20;;;5.98;86.40;98206.00;5048515;28;20549;-71
2021/11/05 07:25:47;;;;;;;9.33;8.40;;;7.30;83.10;;;6.05;86.72;98222.22;5065056;28;20510;-71
2021/11/05 07:28:14;;;;;;;9.27;8.37;;;7.30;83.00;;;6.22;85.65;98223.75;5050220;28;20493;-72
2021/11/05 07:30:41;;;;;;;10.07;9.07;;;7.40;82.40;;;6.18;85.89;98230.50;5050925;28;20971;-71
2021/11/05 07:33:10;;;;;;;11.07;8.97;;;7.50;82.40;;;6.33;84.93;98229.69;5055811;28;20542;-71
2021/11/05 07:35:37;;;;;;;9.10;8.20;;;7.60;81.50;;;6.38;84.84;98238.03;5043455;28;21092;-72
2021/11/05 07:38:04;;;;;;;9.57;8.67;;;7.60;81.60;;;6.48;84.83;98252.03;5048050;28;20576;-71
2021/11/05 07:40:32;;;;;;;10.83;8.50;;;7.70;81.40;;;6.55;84.32;98253.97;5048265;28;20458;-71
2021/11/05 07:43:00;;;;;;;32.47;12.77;;;7.80;80.80;;;6.60;84.79;98255.06;5044745;28;20465;-72
2021/11/05 07:45:28;;;;;;;9.43;8.47;;;7.90;81.40;;;6.31;84.81;98255.88;5049254;28;20507;-71
2021/11/05 07:47:56;;;;;;;10.17;9.17;;;7.70;80.70;;;6.38;85.12;98254.13;5048966;28;20464;-71
2021/11/05 07:50:27;;;;;;;10.23;9.23;;;7.70;81.10;;;6.61;84.48;98266.66;5050193;28;20579;-72
2021/11/05 07:52:54;;;;;;;9.83;8.93;;;7.80;81.10;;;6.27;85.93;98271.50;5045461;28;20461;-72
2021/11/05 07:55:22;;;;;;;10.10;9.17;;;7.60;81.60;;;6.59;84.76;98279.41;5041587;28;20542;-71
2021/11/05 07:57:49;;;;;;;10.70;9.40;;;7.80;81.50;;;6.88;84.50;98272.41;5045858;28;20902;-71
2021/11/05 08:00:16;;;;;;;9.83;8.40;;;7.90;81.60;;;7.17;82.54;98276.09;5050934;28;20538;-71
2021/11/05 08:02:44;;;;;;;9.90;8.90;;;8.20;80.40;;;6.95;81.81;98279.53;5048526;28;20508;-72
2021/11/05 08:05:11;;;;;;;10.20;9.20;;;8.30;78.90;;;6.85;82.43;98288.88;5050030;28;20495;-72
2021/11/05 08:07:40;;;;;;;10.17;8.90;;;8.20;78.70;;;6.75;82.79;98289.16;5049111;28;21089;-71
2021/11/05 08:10:09;;;;;;;10.00;9.00;;;8.20;78.80;;;6.87;82.29;98301.13;5048791;28;20509;-70
2021/11/05 08:12:36;;;;;;;12.03;9.87;;;8.20;78.90;;;6.96;83.37;98299.19;5045121;28;21068;-71
2021/11/05 08:15:05;;;;;;;10.70;9.60;;;8.20;79.50;;;7.05;82.64;98300.75;5048988;28;20462;-71
2021/11/05 08:17:32;;;;;;;9.80;8.63;;;8.30;79.20;;;7.00;81.58;98313.91;5047816;28;20489;-71
2021/11/05 08:19:59;;;;;;;10.00;9.03;;;8.30;78.20;;;7.03;81.84;98302.78;5046002;28;20556;-72
2021/11/05 08:22:26;;;;;;;11.00;9.90;;;8.40;78.70;;;6.77;83.39;98320.19;5043367;28;21015;-72
2021/11/05 08:24:54;;;;;;;11.53;9.43;;;8.20;78.90;;;6.86;82.59;98328.16;5047657;28;20476;-72
2021/11/05 08:27:22;;;;;;;10.33;9.33;;;8.20;78.90;;;6.94;82.30;98326.22;5046260;28;20956;-71
2021/11/05 08:29:50;;;;;;;10.43;9.43;;;8.30;79.00;;;7.14;80.97;98335.59;5047699;28;20922;-72
2021/11/05 08:32:17;;;;;;;11.57;9.67;;;8.40;77.90;;;7.08;81.31;98342.53;5045924;28;20458;-72
2021/11/05 08:34:44;;;;;;;10.50;9.50;;;8.40;78.00;;;7.05;82.23;98338.38;5042823;28;20806;-71
2021/11/05 08:37:11;;;;;;;9.60;8.60;;;8.30;78.50;;;7.05;81.85;98342.91;5043437;28;20490;-72
2021/11/05 08:39:38;;;;;;;13.83;11.03;;;8.40;78.20;;;7.26;80.77;98355.59;5049881;28;20494;-71
2021/11/05 08:42:08;;;;;;;10.93;9.83;;;8.50;77.40;;;7.26;80.98;98358.28;5044599;28;20549;-70
2021/11/05 08:44:35;;;;;;;11.43;10.23;;;8.50;77.60;;;7.68;80.48;98352.41;5048113;28;20995;-71
2021/11/05 08:47:02;;;;;;;10.97;9.87;;;8.80;77.80;;;7.70;78.90;98350.38;5047427;28;20466;-72
2021/11/05 08:49:29;;;;;;;11.03;9.83;;;8.90;76.50;;;8.07;78.21;98349.34;5049992;28;20486;-72
2021/11/05 08:51:56;;;;;;;10.97;9.87;;;9.20;76.30;;;7.96;78.25;98354.34;5047463;28;20576;-72
2021/11/05 08:54:24;;;;;;;11.07;9.90;;;9.20;75.30;;;7.84;79.62;98365.63;5048669;28;20540;-72
2021/11/05 08:56:51;;;;;;;11.43;10.30;;;9.10;75.80;;;7.64;79.56;98368.09;5047496;28;21153;-71
2021/11/05 08:59:24;;;;;;;10.77;9.70;;;9.00;75.90;;;7.65;79.70;98370.56;5055735;28;20537;-72
2021/11/05 09:01:51;;;;;;;12.03;10.93;;;8.90;76.20;;;7.89;79.17;98368.59;5048821;28;20454;-72
2021/11/05 09:04:18;;;;;;;11.70;10.50;;;9.00;76.30;;;8.12;77.08;98362.22;5048953;28;20482;-72
2021/11/05 09:06:47;;;;;;;11.60;10.37;;;9.20;75.30;;;7.93;77.19;98366.34;5045500;28;20474;-73
2021/11/05 09:09:15;;;;;;;11.53;10.20;;;9.20;74.20;;;7.57;79.14;98381.44;5047583;28;20560;-71
2021/11/05 09:11:43;;;;;;;11.37;10.23;;;9.00;74.80;;;7.59;80.18;98382.09;5053805;28;20510;-71
2021/11/05 09:14:10;;;;;;;12.37;11.17;;;8.90;75.90;;;7.55;79.96;98380.81;5049329;28;20545;-72
2021/11/05 09:16:39;;;;;;;11.60;10.40;;;8.80;76.00;;;7.72;79.99;98385.97;5047637;28;20468;-72
2021/11/05 09:19:07;;;;;;;11.03;9.93;;;8.90;76.50;;;7.63;79.09;98383.38;5046967;28;20549;-71
2021/11/05 09:21:35;;;;;;;11.00;9.90;;;8.90;75.20;;;7.59;79.90;98398.22;5047178;28;20466;-71
2021/11/05 09:24:04;;;;;;;11.83;10.73;;;8.90;75.30;;;7.53;80.13;98398.97;5058313;28;20493;-71
2021/11/05 09:26:32;;;;;;;12.23;11.03;;;8.90;75.70;;;7.26;79.93;98403.13;5044469;28;20580;-72
2021/11/05 09:29:00;;;;;;;11.10;10.07;;;8.60;75.20;;;7.25;80.50;98401.47;5053703;28;20466;-72
2021/11/05 09:31:27;;;;;;;12.50;10.70;;;8.60;75.70;;;6.99;81.20;98392.84;5057700;28;20478;-72
2021/11/05 09:33:56;;;;;;;13.67;11.63;;;8.50;75.80;;;7.12;81.70;98412.88;5047950;28;20581;-71
2021/11/05 09:36:23;;;;;;;11.87;10.67;;;8.50;76.50;;;7.00;81.53;98413.31;5041718;28;20492;-71
2021/11/05 09:38:50;;;;;;;11.23;10.13;;;8.40;76.40;;;7.07;81.72;98416.94;5045718;28;20497;-70
2021/11/05 09:41:18;;;;;;;12.17;10.73;;;8.40;76.70;;;7.16;81.68;98424.91;5044531;28;20512;-71
2021/11/05 09:43:46;;;;;;;13.00;11.70;;;8.40;76.80;;;7.27;81.28;98429.84;5043616;28;20531;-71
2021/11/05 09:46:13;;;;;;;11.90;10.70;;;8.50;77.00;;;7.16;81.66;98433.81;5045678;28;20516;-71
2021/11/05 09:48:40;;;;;;;13.50;11.93;;;8.50;76.80;;;7.16;81.63;98438.34;5048289;28;20542;-72
2021/11/05 09:51:10;;;;;;;12.17;10.97;;;8.50;76.80;;;7.15;81.14;98447.44;5045389;28;20977;-71
2021/11/05 09:53:39;;;;;;;12.10;10.90;;;8.40;76.30;;;7.11;81.74;98438.06;5044930;28;20568;-72
2021/11/05 09:56:10;;;;;;;12.23;11.03;;;8.50;77.10;;;7.15;81.60;98450.13;5047484;28;20925;-72
2021/11/05 09:58:38;;;;;;;12.77;11.50;;;8.40;76.90;;;7.23;82.20;98450.03;5047187;28;20973;-71
2021/11/05 10:01:06;;;;;;;11.87;10.37;;;8.50;77.30;;;7.29;80.37;98451.16;5045777;28;20466;-71
2021/11/05 10:03:34;;;;;;;12.53;10.80;;;8.60;76.00;;;7.04;80.97;98454.91;5052193;28;20969;-71
2021/11/05 10:06:01;;;;;;;12.43;11.23;;;8.40;75.90;;;6.83;82.35;98446.72;5042283;28;20458;-71
2021/11/05 10:08:34;;;;;;;13.30;11.90;;;8.30;76.90;;;6.76;82.32;98462.72;5044778;28;20532;-71
2021/11/05 10:11:01;;;;;;;13.00;11.80;;;8.10;76.90;;;6.77;82.66;98451.78;5047859;28;20481;-71
2021/11/05 10:13:29;;;;;;;13.40;12.00;;;8.10;77.60;;;6.86;82.61;98451.72;5044551;28;20828;-70
2021/11/05 10:15:58;;;;;;;15.50;12.30;;;8.20;77.80;;;7.00;82.67;98466.22;5047329;28;20469;-71
2021/11/05 10:18:29;;;;;;;13.93;12.30;;;8.30;78.00;;;7.12;82.29;98466.59;5047416;28;20546;-72
2021/11/05 10:21:11;;;;;;;13.90;12.50;;;8.30;78.00;;;7.17;81.88;98456.13;5049316;28;20512;-71
2021/11/05 10:23:42;;;;;;;15.97;13.03;;;8.50;78.00;;;7.36;81.53;98477.13;5045987;28;20533;-72
2021/11/05 10:26:20;;;;;;;12.53;11.23;;;8.60;78.10;;;7.28;81.13;98469.13;5043342;28;20461;-72